sensor_id;sensor_type;location;lat;lon;timestamp;P1;durP1;ratioP1;P2;durP2;ratioP2
28483;SDS011;15704;48.834;8.736;2022-07-06T00:01:43;2.85;;;1.70;;
28483;SDS011;15704;48.834;8.736;2022-07-06T00:05:27;3.47;;;1.73;;
28483;SDS011;15704;48.834;8.736;2022-07-06T00:09:10;6.10;;;1.55;;
28483;SDS011;15704;48.834;8.736;2022-07-06T00:12:54;3.05;;;1.50;;
28483;SDS011;15704;48.834;8.736;2022-07-06T00:16:41;3.28;;;1.67;;
28483;SDS011;15704;48.834;8.736;2022-07-06T00:20:27;8.90;;;1.52;;
28483;SDS011;15704;48.834;8.736;2022-07-06T00:24:11;5.75;;;1.45;;
28483;SDS011;15704;48.834;8.736;2022-07-06T00:31:39;2.28;;;1.55;;
28483;SDS011;15704;48.834;8.736;2022-07-06T00:35:28;2.53;;;1.35;;
28483;SDS011;15704;48.834;8.736;2022-07-06T00:39:11;4.07;;;1.95;;
28483;SDS011;15704;48.834;8.736;2022-07-06T00:42:55;3.25;;;1.90;;
28483;SDS011;15704;48.834;8.736;2022-07-06T00:46:38;2.78;;;1.50;;
28483;SDS011;15704;48.834;8.736;2022-07-06T00:50:21;2.28;;;1.55;;
28483;SDS011;15704;48.834;8.736;2022-07-06T00:54:04;5.22;;;1.45;;
28483;SDS011;15704;48.834;8.736;2022-07-06T00:57:50;10.02;;;1.60;;
28483;SDS011;15704;48.834;8.736;2022-07-06T01:01:35;6.22;;;1.63;;
28483;SDS011;15704;48.834;8.736;2022-07-06T01:05:18;6.10;;;1.42;;
28483;SDS011;15704;48.834;8.736;2022-07-06T01:09:02;8.57;;;1.58;;
28483;SDS011;15704;48.834;8.736;2022-07-06T01:12:47;11.43;;;1.85;;
28483;SDS011;15704;48.834;8.736;2022-07-06T01:16:30;6.93;;;1.50;;
28483;SDS011;15704;48.834;8.736;2022-07-06T01:20:15;5.15;;;2.15;;
28483;SDS011;15704;48.834;8.736;2022-07-06T01:23:59;4.68;;;1.92;;
28483;SDS011;15704;48.834;8.736;2022-07-06T01:27:41;12.13;;;1.80;;
28483;SDS011;15704;48.834;8.736;2022-07-06T01:31:25;7.43;;;1.80;;
28483;SDS011;15704;48.834;8.736;2022-07-06T01:35:12;3.45;;;1.85;;
28483;SDS011;15704;48.834;8.736;2022-07-06T01:39:00;4.70;;;1.83;;
28483;SDS011;15704;48.834;8.736;2022-07-06T01:42:44;6.63;;;2.33;;
28483;SDS011;15704;48.834;8.736;2022-07-06T01:46:27;5.50;;;1.85;;
28483;SDS011;15704;48.834;8.736;2022-07-06T01:50:11;5.10;;;2.20;;
28483;SDS011;15704;48.834;8.736;2022-07-06T01:53:53;3.47;;;2.43;;
28483;SDS011;15704;48.834;8.736;2022-07-06T01:57:38;4.03;;;2.30;;
28483;SDS011;15704;48.834;8.736;2022-07-06T02:01:20;5.07;;;2.42;;
28483;SDS011;15704;48.834;8.736;2022-07-06T02:05:05;7.05;;;2.40;;
28483;SDS011;15704;48.834;8.736;2022-07-06T02:08:48;7.95;;;2.50;;
28483;SDS011;15704;48.834;8.736;2022-07-06T02:12:33;9.70;;;2.70;;
28483;SDS011;15704;48.834;8.736;2022-07-06T02:16:17;9.75;;;2.35;;
28483;SDS011;15704;48.834;8.736;2022-07-06T02:20:04;4.00;;;2.33;;
28483;SDS011;15704;48.834;8.736;2022-07-06T02:23:50;4.53;;;2.80;;
28483;SDS011;15704;48.834;8.736;2022-07-06T02:27:33;6.28;;;2.95;;
28483;SDS011;15704;48.834;8.736;2022-07-06T02:31:17;4.90;;;2.55;;
28483;SDS011;15704;48.834;8.736;2022-07-06T02:35:01;3.65;;;2.53;;
28483;SDS011;15704;48.834;8.736;2022-07-06T02:38:47;7.13;;;2.80;;
28483;SDS011;15704;48.834;8.736;2022-07-06T02:42:31;5.60;;;2.90;;
28483;SDS011;15704;48.834;8.736;2022-07-06T02:46:18;10.93;;;3.35;;
28483;SDS011;15704;48.834;8.736;2022-07-06T02:50:01;6.03;;;3.22;;
28483;SDS011;15704;48.834;8.736;2022-07-06T02:53:43;5.95;;;3.50;;
28483;SDS011;15704;48.834;8.736;2022-07-06T02:57:26;7.65;;;3.45;;
28483;SDS011;15704;48.834;8.736;2022-07-06T03:01:10;12.73;;;3.78;;
28483;SDS011;15704;48.834;8.736;2022-07-06T03:04:55;12.60;;;4.05;;
28483;SDS011;15704;48.834;8.736;2022-07-06T03:08:40;4.88;;;3.30;;
28483;SDS011;15704;48.834;8.736;2022-07-06T03:12:23;5.10;;;4.50;;
28483;SDS011;15704;48.834;8.736;2022-07-06T03:16:06;7.57;;;3.92;;
28483;SDS011;15704;48.834;8.736;2022-07-06T03:19:49;12.60;;;4.55;;
28483;SDS011;15704;48.834;8.736;2022-07-06T03:23:35;8.98;;;4.00;;
28483;SDS011;15704;48.834;8.736;2022-07-06T03:27:17;7.38;;;4.40;;
28483;SDS011;15704;48.834;8.736;2022-07-06T03:31:00;13.20;;;4.47;;
28483;SDS011;15704;48.834;8.736;2022-07-06T03:34:43;14.27;;;4.47;;
28483;SDS011;15704;48.834;8.736;2022-07-06T03:38:25;13.50;;;4.47;;
28483;SDS011;15704;48.834;8.736;2022-07-06T03:42:13;6.55;;;4.05;;
28483;SDS011;15704;48.834;8.736;2022-07-06T03:45:55;9.57;;;4.40;;
28483;SDS011;15704;48.834;8.736;2022-07-06T03:49:38;6.80;;;4.55;;
28483;SDS011;15704;48.834;8.736;2022-07-06T03:53:24;10.43;;;4.72;;
28483;SDS011;15704;48.834;8.736;2022-07-06T03:57:07;7.90;;;5.13;;
28483;SDS011;15704;48.834;8.736;2022-07-06T04:00:54;10.18;;;4.70;;
28483;SDS011;15704;48.834;8.736;2022-07-06T04:04:37;7.40;;;4.60;;
28483;SDS011;15704;48.834;8.736;2022-07-06T04:08:20;8.23;;;4.78;;
28483;SDS011;15704;48.834;8.736;2022-07-06T04:15:46;9.57;;;4.33;;
28483;SDS011;15704;48.834;8.736;2022-07-06T04:19:30;8.63;;;4.78;;
28483;SDS011;15704;48.834;8.736;2022-07-06T04:23:21;7.50;;;4.47;;
28483;SDS011;15704;48.834;8.736;2022-07-06T04:27:06;9.23;;;4.20;;
28483;SDS011;15704;48.834;8.736;2022-07-06T04:30:51;10.10;;;4.28;;
28483;SDS011;15704;48.834;8.736;2022-07-06T04:34:43;10.77;;;3.92;;
28483;SDS011;15704;48.834;8.736;2022-07-06T04:38:26;14.23;;;5.03;;
28483;SDS011;15704;48.834;8.736;2022-07-06T04:42:14;9.18;;;4.80;;
28483;SDS011;15704;48.834;8.736;2022-07-06T04:45:57;10.30;;;4.07;;
28483;SDS011;15704;48.834;8.736;2022-07-06T04:49:45;9.82;;;3.75;;
28483;SDS011;15704;48.834;8.736;2022-07-06T04:53:27;8.65;;;3.38;;
28483;SDS011;15704;48.834;8.736;2022-07-06T04:57:12;6.18;;;3.08;;
28483;SDS011;15704;48.834;8.736;2022-07-06T05:00:56;8.35;;;2.83;;
28483;SDS011;15704;48.834;8.736;2022-07-06T05:04:39;4.60;;;2.70;;
28483;SDS011;15704;48.834;8.736;2022-07-06T05:08:23;8.60;;;3.03;;
28483;SDS011;15704;48.834;8.736;2022-07-06T05:12:07;6.68;;;3.00;;
28483;SDS011;15704;48.834;8.736;2022-07-06T05:15:51;5.03;;;3.40;;
28483;SDS011;15704;48.834;8.736;2022-07-06T05:19:33;3.28;;;2.25;;
28483;SDS011;15704;48.834;8.736;2022-07-06T05:23:18;4.68;;;3.10;;
28483;SDS011;15704;48.834;8.736;2022-07-06T05:27:05;7.05;;;3.60;;
28483;SDS011;15704;48.834;8.736;2022-07-06T05:30:48;14.93;;;3.58;;
28483;SDS011;15704;48.834;8.736;2022-07-06T05:34:30;7.53;;;3.42;;
28483;SDS011;15704;48.834;8.736;2022-07-06T05:38:13;8.10;;;3.22;;
28483;SDS011;15704;48.834;8.736;2022-07-06T05:41:56;7.80;;;3.28;;
28483;SDS011;15704;48.834;8.736;2022-07-06T05:45:40;7.22;;;3.20;;
28483;SDS011;15704;48.834;8.736;2022-07-06T05:49:23;11.48;;;3.60;;
28483;SDS011;15704;48.834;8.736;2022-07-06T05:53:23;7.82;;;3.35;;
28483;SDS011;15704;48.834;8.736;2022-07-06T06:00:49;13.27;;;3.17;;
28483;SDS011;15704;48.834;8.736;2022-07-06T06:04:32;6.70;;;3.28;;
28483;SDS011;15704;48.834;8.736;2022-07-06T06:08:15;8.77;;;3.35;;
28483;SDS011;15704;48.834;8.736;2022-07-06T06:12:01;7.82;;;3.30;;
28483;SDS011;15704;48.834;8.736;2022-07-06T06:15:44;6.47;;;3.55;;
28483;SDS011;15704;48.834;8.736;2022-07-06T06:23:14;7.93;;;3.38;;
28483;SDS011;15704;48.834;8.736;2022-07-06T06:30:41;4.28;;;2.67;;
28483;SDS011;15704;48.834;8.736;2022-07-06T06:34:23;9.15;;;2.97;;
28483;SDS011;15704;48.834;8.736;2022-07-06T06:38:08;5.75;;;3.15;;
28483;SDS011;15704;48.834;8.736;2022-07-06T06:41:52;9.75;;;3.20;;
28483;SDS011;15704;48.834;8.736;2022-07-06T06:45:35;4.57;;;2.80;;
28483;SDS011;15704;48.834;8.736;2022-07-06T06:49:17;5.25;;;2.97;;
28483;SDS011;15704;48.834;8.736;2022-07-06T06:53:01;9.60;;;2.97;;
28483;SDS011;15704;48.834;8.736;2022-07-06T06:56:45;7.00;;;2.92;;
28483;SDS011;15704;48.834;8.736;2022-07-06T07:00:28;4.38;;;2.35;;
28483;SDS011;15704;48.834;8.736;2022-07-06T07:04:11;9.55;;;2.78;;
28483;SDS011;15704;48.834;8.736;2022-07-06T07:11:46;6.88;;;2.85;;
28483;SDS011;15704;48.834;8.736;2022-07-06T07:15:28;6.82;;;2.47;;
28483;SDS011;15704;48.834;8.736;2022-07-06T07:19:11;14.73;;;4.15;;
28483;SDS011;15704;48.834;8.736;2022-07-06T07:22:54;15.55;;;3.53;;
28483;SDS011;15704;48.834;8.736;2022-07-06T07:26:37;7.57;;;3.10;;
28483;SDS011;15704;48.834;8.736;2022-07-06T07:30:22;10.73;;;3.80;;
28483;SDS011;15704;48.834;8.736;2022-07-06T07:34:05;7.53;;;3.47;;
28483;SDS011;15704;48.834;8.736;2022-07-06T07:37:47;17.45;;;3.88;;
28483;SDS011;15704;48.834;8.736;2022-07-06T07:41:30;6.80;;;3.10;;
28483;SDS011;15704;48.834;8.736;2022-07-06T07:45:13;15.15;;;4.85;;
28483;SDS011;15704;48.834;8.736;2022-07-06T07:48:57;5.32;;;3.10;;
28483;SDS011;15704;48.834;8.736;2022-07-06T07:52:40;11.27;;;2.97;;
28483;SDS011;15704;48.834;8.736;2022-07-06T07:56:27;11.40;;;2.95;;
28483;SDS011;15704;48.834;8.736;2022-07-06T08:00:11;7.38;;;3.25;;
28483;SDS011;15704;48.834;8.736;2022-07-06T08:03:55;7.72;;;3.08;;
28483;SDS011;15704;48.834;8.736;2022-07-06T08:07:40;12.18;;;3.00;;
28483;SDS011;15704;48.834;8.736;2022-07-06T08:11:23;6.10;;;3.40;;
28483;SDS011;15704;48.834;8.736;2022-07-06T08:15:06;7.15;;;3.30;;
28483;SDS011;15704;48.834;8.736;2022-07-06T08:18:49;15.02;;;3.28;;
28483;SDS011;15704;48.834;8.736;2022-07-06T08:22:34;12.85;;;6.80;;
28483;SDS011;15704;48.834;8.736;2022-07-06T08:26:22;5.95;;;2.55;;
28483;SDS011;15704;48.834;8.736;2022-07-06T08:30:06;6.72;;;3.78;;
28483;SDS011;15704;48.834;8.736;2022-07-06T08:33:50;22.42;;;4.35;;
28483;SDS011;15704;48.834;8.736;2022-07-06T08:37:33;13.40;;;3.50;;
28483;SDS011;15704;48.834;8.736;2022-07-06T08:41:21;6.57;;;3.40;;
28483;SDS011;15704;48.834;8.736;2022-07-06T08:45:07;7.50;;;3.60;;
28483;SDS011;15704;48.834;8.736;2022-07-06T08:48:50;8.60;;;3.63;;
28483;SDS011;15704;48.834;8.736;2022-07-06T08:52:33;9.27;;;3.75;;
28483;SDS011;15704;48.834;8.736;2022-07-06T08:56:16;6.82;;;3.70;;
28483;SDS011;15704;48.834;8.736;2022-07-06T09:00:02;7.28;;;3.75;;
28483;SDS011;15704;48.834;8.736;2022-07-06T09:03:46;9.15;;;3.45;;
28483;SDS011;15704;48.834;8.736;2022-07-06T09:07:31;5.70;;;3.10;;
28483;SDS011;15704;48.834;8.736;2022-07-06T09:11:34;12.57;;;3.72;;
28483;SDS011;15704;48.834;8.736;2022-07-06T09:15:22;13.52;;;3.88;;
28483;SDS011;15704;48.834;8.736;2022-07-06T09:19:13;8.88;;;3.67;;
28483;SDS011;15704;48.834;8.736;2022-07-06T09:22:59;12.48;;;3.78;;
28483;SDS011;15704;48.834;8.736;2022-07-06T09:26:42;13.80;;;3.70;;
28483;SDS011;15704;48.834;8.736;2022-07-06T09:30:28;9.38;;;3.95;;
28483;SDS011;15704;48.834;8.736;2022-07-06T09:34:12;8.57;;;3.97;;
28483;SDS011;15704;48.834;8.736;2022-07-06T09:38:02;5.47;;;3.78;;
28483;SDS011;15704;48.834;8.736;2022-07-06T09:41:46;9.55;;;4.55;;
28483;SDS011;15704;48.834;8.736;2022-07-06T09:45:30;12.15;;;4.53;;
28483;SDS011;15704;48.834;8.736;2022-07-06T09:49:16;10.23;;;4.07;;
28483;SDS011;15704;48.834;8.736;2022-07-06T09:53:00;7.40;;;3.35;;
28483;SDS011;15704;48.834;8.736;2022-07-06T09:56:44;14.32;;;3.50;;
28483;SDS011;15704;48.834;8.736;2022-07-06T10:00:35;8.40;;;4.07;;
28483;SDS011;15704;48.834;8.736;2022-07-06T10:04:18;9.45;;;3.63;;
28483;SDS011;15704;48.834;8.736;2022-07-06T10:08:02;16.17;;;4.40;;
28483;SDS011;15704;48.834;8.736;2022-07-06T10:11:47;9.65;;;4.18;;
28483;SDS011;15704;48.834;8.736;2022-07-06T10:15:36;13.57;;;4.60;;
28483;SDS011;15704;48.834;8.736;2022-07-06T10:19:23;11.00;;;4.15;;
28483;SDS011;15704;48.834;8.736;2022-07-06T10:23:07;13.23;;;4.28;;
28483;SDS011;15704;48.834;8.736;2022-07-06T10:26:50;15.45;;;4.10;;
28483;SDS011;15704;48.834;8.736;2022-07-06T10:30:36;6.38;;;3.42;;
28483;SDS011;15704;48.834;8.736;2022-07-06T10:34:19;7.45;;;3.85;;
28483;SDS011;15704;48.834;8.736;2022-07-06T10:38:08;6.75;;;3.42;;
28483;SDS011;15704;48.834;8.736;2022-07-06T10:41:52;4.30;;;2.70;;
28483;SDS011;15704;48.834;8.736;2022-07-06T10:45:52;8.57;;;3.90;;
28483;SDS011;15704;48.834;8.736;2022-07-06T10:49:35;7.40;;;3.72;;
28483;SDS011;15704;48.834;8.736;2022-07-06T10:53:40;9.65;;;3.47;;
28483;SDS011;15704;48.834;8.736;2022-07-06T10:57:25;10.13;;;3.63;;
28483;SDS011;15704;48.834;8.736;2022-07-06T11:01:10;8.40;;;3.33;;
28483;SDS011;15704;48.834;8.736;2022-07-06T11:04:54;8.43;;;3.55;;
28483;SDS011;15704;48.834;8.736;2022-07-06T11:08:50;7.68;;;2.95;;
28483;SDS011;15704;48.834;8.736;2022-07-06T11:12:34;12.32;;;3.03;;
28483;SDS011;15704;48.834;8.736;2022-07-06T11:16:20;9.68;;;3.10;;
28483;SDS011;15704;48.834;8.736;2022-07-06T11:20:08;18.45;;;2.45;;
28483;SDS011;15704;48.834;8.736;2022-07-06T11:23:52;6.95;;;3.28;;
28483;SDS011;15704;48.834;8.736;2022-07-06T11:27:36;7.22;;;3.33;;
28483;SDS011;15704;48.834;8.736;2022-07-06T11:31:21;6.53;;;3.33;;
28483;SDS011;15704;48.834;8.736;2022-07-06T11:35:04;14.85;;;3.50;;
28483;SDS011;15704;48.834;8.736;2022-07-06T11:38:48;10.43;;;2.65;;
28483;SDS011;15704;48.834;8.736;2022-07-06T11:42:31;5.82;;;3.55;;
28483;SDS011;15704;48.834;8.736;2022-07-06T11:46:22;11.13;;;2.88;;
28483;SDS011;15704;48.834;8.736;2022-07-06T11:50:07;14.18;;;2.45;;
28483;SDS011;15704;48.834;8.736;2022-07-06T11:54:01;10.70;;;2.60;;
28483;SDS011;15704;48.834;8.736;2022-07-06T11:57:49;6.15;;;2.67;;
28483;SDS011;15704;48.834;8.736;2022-07-06T12:01:39;8.93;;;2.72;;
28483;SDS011;15704;48.834;8.736;2022-07-06T12:05:28;8.20;;;2.60;;
28483;SDS011;15704;48.834;8.736;2022-07-06T12:09:14;8.68;;;3.33;;
28483;SDS011;15704;48.834;8.736;2022-07-06T12:13:01;4.75;;;2.63;;
28483;SDS011;15704;48.834;8.736;2022-07-06T12:16:48;9.30;;;2.30;;
28483;SDS011;15704;48.834;8.736;2022-07-06T12:20:35;10.77;;;2.92;;
28483;SDS011;15704;48.834;8.736;2022-07-06T12:24:20;8.60;;;2.38;;
28483;SDS011;15704;48.834;8.736;2022-07-06T12:28:04;12.95;;;2.42;;
28483;SDS011;15704;48.834;8.736;2022-07-06T12:31:49;6.00;;;2.40;;
28483;SDS011;15704;48.834;8.736;2022-07-06T12:35:34;6.10;;;2.20;;
28483;SDS011;15704;48.834;8.736;2022-07-06T12:43:03;6.22;;;1.95;;
28483;SDS011;15704;48.834;8.736;2022-07-06T12:46:46;5.85;;;2.25;;
28483;SDS011;15704;48.834;8.736;2022-07-06T12:50:34;6.63;;;1.88;;
28483;SDS011;15704;48.834;8.736;2022-07-06T12:54:18;4.97;;;2.00;;
28483;SDS011;15704;48.834;8.736;2022-07-06T12:58:01;7.63;;;2.00;;
28483;SDS011;15704;48.834;8.736;2022-07-06T13:01:46;3.90;;;1.73;;
28483;SDS011;15704;48.834;8.736;2022-07-06T13:05:33;7.10;;;1.95;;
28483;SDS011;15704;48.834;8.736;2022-07-06T13:09:16;4.60;;;2.10;;
28483;SDS011;15704;48.834;8.736;2022-07-06T13:12:59;5.85;;;1.92;;
28483;SDS011;15704;48.834;8.736;2022-07-06T13:16:42;3.75;;;2.00;;
28483;SDS011;15704;48.834;8.736;2022-07-06T13:20:29;4.57;;;1.67;;
28483;SDS011;15704;48.834;8.736;2022-07-06T13:24:14;5.18;;;1.70;;
28483;SDS011;15704;48.834;8.736;2022-07-06T13:27:57;3.65;;;1.65;;
28483;SDS011;15704;48.834;8.736;2022-07-06T13:31:40;2.92;;;1.70;;
28483;SDS011;15704;48.834;8.736;2022-07-06T13:35:23;8.20;;;1.77;;
28483;SDS011;15704;48.834;8.736;2022-07-06T13:39:06;2.75;;;1.77;;
28483;SDS011;15704;48.834;8.736;2022-07-06T13:42:51;3.90;;;1.60;;
28483;SDS011;15704;48.834;8.736;2022-07-06T13:46:35;4.18;;;1.55;;
28483;SDS011;15704;48.834;8.736;2022-07-06T13:50:18;5.68;;;1.80;;
28483;SDS011;15704;48.834;8.736;2022-07-06T13:57:47;7.83;;;1.90;;
28483;SDS011;15704;48.834;8.736;2022-07-06T14:01:31;9.30;;;1.75;;
28483;SDS011;15704;48.834;8.736;2022-07-06T14:05:14;10.90;;;1.80;;
28483;SDS011;15704;48.834;8.736;2022-07-06T14:08:59;4.43;;;1.67;;
28483;SDS011;15704;48.834;8.736;2022-07-06T14:12:43;4.30;;;1.92;;
28483;SDS011;15704;48.834;8.736;2022-07-06T14:16:26;4.57;;;1.50;;
28483;SDS011;15704;48.834;8.736;2022-07-06T14:20:11;1.45;;;1.10;;
28483;SDS011;15704;48.834;8.736;2022-07-06T14:23:53;3.60;;;1.30;;
28483;SDS011;15704;48.834;8.736;2022-07-06T14:31:21;5.80;;;1.50;;
28483;SDS011;15704;48.834;8.736;2022-07-06T14:35:05;1.73;;;1.45;;
28483;SDS011;15704;48.834;8.736;2022-07-06T14:38:49;2.55;;;1.23;;
28483;SDS011;15704;48.834;8.736;2022-07-06T14:42:34;2.50;;;1.15;;
28483;SDS011;15704;48.834;8.736;2022-07-06T14:46:17;2.60;;;1.10;;
28483;SDS011;15704;48.834;8.736;2022-07-06T14:50:03;10.68;;;1.42;;
28483;SDS011;15704;48.834;8.736;2022-07-06T14:53:47;2.83;;;1.30;;
28483;SDS011;15704;48.834;8.736;2022-07-06T15:01:16;5.65;;;1.38;;
28483;SDS011;15704;48.834;8.736;2022-07-06T15:04:59;4.22;;;1.23;;
28483;SDS011;15704;48.834;8.736;2022-07-06T15:08:41;2.47;;;1.35;;
28483;SDS011;15704;48.834;8.736;2022-07-06T15:12:27;3.08;;;1.17;;
28483;SDS011;15704;48.834;8.736;2022-07-06T15:16:11;1.67;;;1.00;;
28483;SDS011;15704;48.834;8.736;2022-07-06T15:19:54;0.93;;;0.75;;
28483;SDS011;15704;48.834;8.736;2022-07-06T15:23:37;1.40;;;0.98;;
28483;SDS011;15704;48.834;8.736;2022-07-06T15:27:20;1.85;;;1.00;;
28483;SDS011;15704;48.834;8.736;2022-07-06T15:31:03;1.40;;;1.10;;
28483;SDS011;15704;48.834;8.736;2022-07-06T15:38:29;1.67;;;0.80;;
28483;SDS011;15704;48.834;8.736;2022-07-06T15:42:13;3.45;;;1.02;;
28483;SDS011;15704;48.834;8.736;2022-07-06T15:49:43;1.88;;;0.95;;
28483;SDS011;15704;48.834;8.736;2022-07-06T15:53:35;9.98;;;1.13;;
28483;SDS011;15704;48.834;8.736;2022-07-06T15:57:21;4.35;;;0.98;;
28483;SDS011;15704;48.834;8.736;2022-07-06T16:01:04;0.98;;;0.70;;
28483;SDS011;15704;48.834;8.736;2022-07-06T16:04:46;2.40;;;0.95;;
28483;SDS011;15704;48.834;8.736;2022-07-06T16:08:29;3.80;;;1.23;;
28483;SDS011;15704;48.834;8.736;2022-07-06T16:12:26;3.30;;;1.17;;
28483;SDS011;15704;48.834;8.736;2022-07-06T16:16:09;2.70;;;1.38;;
28483;SDS011;15704;48.834;8.736;2022-07-06T16:19:52;3.42;;;1.00;;
28483;SDS011;15704;48.834;8.736;2022-07-06T16:27:18;2.53;;;1.00;;
28483;SDS011;15704;48.834;8.736;2022-07-06T16:31:02;2.58;;;1.10;;
28483;SDS011;15704;48.834;8.736;2022-07-06T16:34:45;4.95;;;0.73;;
28483;SDS011;15704;48.834;8.736;2022-07-06T16:38:30;1.92;;;1.10;;
28483;SDS011;15704;48.834;8.736;2022-07-06T16:45:57;4.20;;;1.40;;
28483;SDS011;15704;48.834;8.736;2022-07-06T16:49:43;2.85;;;1.05;;
28483;SDS011;15704;48.834;8.736;2022-07-06T16:53:26;2.03;;;1.20;;
28483;SDS011;15704;48.834;8.736;2022-07-06T17:00:51;3.25;;;1.73;;
28483;SDS011;15704;48.834;8.736;2022-07-06T17:04:36;2.03;;;1.40;;
28483;SDS011;15704;48.834;8.736;2022-07-06T17:08:21;2.50;;;1.65;;
28483;SDS011;15704;48.834;8.736;2022-07-06T17:12:06;3.28;;;1.73;;
28483;SDS011;15704;48.834;8.736;2022-07-06T17:15:49;3.78;;;1.40;;
28483;SDS011;15704;48.834;8.736;2022-07-06T17:19:35;3.58;;;1.77;;
28483;SDS011;15704;48.834;8.736;2022-07-06T17:23:19;6.05;;;2.03;;
28483;SDS011;15704;48.834;8.736;2022-07-06T17:27:03;3.90;;;2.20;;
28483;SDS011;15704;48.834;8.736;2022-07-06T17:30:49;4.75;;;1.95;;
28483;SDS011;15704;48.834;8.736;2022-07-06T17:34:32;5.50;;;1.90;;
28483;SDS011;15704;48.834;8.736;2022-07-06T17:38:15;12.60;;;2.00;;
28483;SDS011;15704;48.834;8.736;2022-07-06T17:41:58;1.83;;;1.63;;
28483;SDS011;15704;48.834;8.736;2022-07-06T17:45:42;6.22;;;2.17;;
28483;SDS011;15704;48.834;8.736;2022-07-06T17:49:28;3.25;;;2.00;;
28483;SDS011;15704;48.834;8.736;2022-07-06T17:53:15;2.53;;;1.80;;
28483;SDS011;15704;48.834;8.736;2022-07-06T17:56:58;6.63;;;1.77;;
28483;SDS011;15704;48.834;8.736;2022-07-06T18:00:44;3.72;;;2.10;;
28483;SDS011;15704;48.834;8.736;2022-07-06T18:04:27;7.45;;;2.10;;
28483;SDS011;15704;48.834;8.736;2022-07-06T18:11:56;5.07;;;2.35;;
28483;SDS011;15704;48.834;8.736;2022-07-06T18:15:39;3.53;;;1.70;;
28483;SDS011;15704;48.834;8.736;2022-07-06T18:19:23;3.85;;;1.67;;
28483;SDS011;15704;48.834;8.736;2022-07-06T18:23:13;3.85;;;1.63;;
28483;SDS011;15704;48.834;8.736;2022-07-06T18:26:56;8.05;;;1.80;;
28483;SDS011;15704;48.834;8.736;2022-07-06T18:34:24;3.92;;;1.35;;
28483;SDS011;15704;48.834;8.736;2022-07-06T18:38:08;5.25;;;1.40;;
28483;SDS011;15704;48.834;8.736;2022-07-06T18:41:52;4.80;;;1.23;;
28483;SDS011;15704;48.834;8.736;2022-07-06T18:45:35;6.13;;;3.22;;
28483;SDS011;15704;48.834;8.736;2022-07-06T18:49:18;7.70;;;3.25;;
28483;SDS011;15704;48.834;8.736;2022-07-06T18:53:04;9.77;;;1.67;;
28483;SDS011;15704;48.834;8.736;2022-07-06T18:56:48;2.85;;;1.13;;
28483;SDS011;15704;48.834;8.736;2022-07-06T19:00:31;4.40;;;1.05;;
28483;SDS011;15704;48.834;8.736;2022-07-06T19:04:13;11.52;;;1.60;;
28483;SDS011;15704;48.834;8.736;2022-07-06T19:08:01;5.82;;;1.42;;
28483;SDS011;15704;48.834;8.736;2022-07-06T19:11:45;1.75;;;1.13;;
28483;SDS011;15704;48.834;8.736;2022-07-06T19:15:28;12.27;;;1.00;;
28483;SDS011;15704;48.834;8.736;2022-07-06T19:19:13;2.65;;;1.00;;
28483;SDS011;15704;48.834;8.736;2022-07-06T19:22:56;4.10;;;0.85;;
28483;SDS011;15704;48.834;8.736;2022-07-06T19:26:39;6.13;;;1.40;;
28483;SDS011;15704;48.834;8.736;2022-07-06T19:30:26;9.45;;;2.08;;
28483;SDS011;15704;48.834;8.736;2022-07-06T19:34:12;5.40;;;1.00;;
28483;SDS011;15704;48.834;8.736;2022-07-06T19:37:55;8.88;;;1.20;;
28483;SDS011;15704;48.834;8.736;2022-07-06T19:41:40;5.47;;;0.98;;
28483;SDS011;15704;48.834;8.736;2022-07-06T19:45:27;7.88;;;1.27;;
28483;SDS011;15704;48.834;8.736;2022-07-06T19:49:10;3.03;;;0.90;;
28483;SDS011;15704;48.834;8.736;2022-07-06T19:52:57;3.45;;;1.20;;
28483;SDS011;15704;48.834;8.736;2022-07-06T19:56:42;8.10;;;1.27;;
28483;SDS011;15704;48.834;8.736;2022-07-06T20:00:29;2.72;;;1.17;;
28483;SDS011;15704;48.834;8.736;2022-07-06T20:04:13;7.05;;;1.02;;
28483;SDS011;15704;48.834;8.736;2022-07-06T20:07:56;16.05;;;1.52;;
28483;SDS011;15704;48.834;8.736;2022-07-06T20:11:41;9.45;;;1.10;;
28483;SDS011;15704;48.834;8.736;2022-07-06T20:15:29;3.25;;;1.10;;
28483;SDS011;15704;48.834;8.736;2022-07-06T20:19:12;7.90;;;1.05;;
28483;SDS011;15704;48.834;8.736;2022-07-06T20:23:02;3.17;;;1.23;;
28483;SDS011;15704;48.834;8.736;2022-07-06T20:26:46;4.05;;;1.30;;
28483;SDS011;15704;48.834;8.736;2022-07-06T20:30:31;9.10;;;1.13;;
28483;SDS011;15704;48.834;8.736;2022-07-06T20:34:14;2.45;;;1.10;;
28483;SDS011;15704;48.834;8.736;2022-07-06T20:37:57;5.00;;;1.40;;
28483;SDS011;15704;48.834;8.736;2022-07-06T20:41:44;3.17;;;1.10;;
28483;SDS011;15704;48.834;8.736;2022-07-06T20:45:27;2.97;;;1.58;;
28483;SDS011;15704;48.834;8.736;2022-07-06T20:49:11;4.18;;;1.05;;
28483;SDS011;15704;48.834;8.736;2022-07-06T20:53:02;3.50;;;1.10;;
28483;SDS011;15704;48.834;8.736;2022-07-06T20:56:46;9.40;;;1.48;;
28483;SDS011;15704;48.834;8.736;2022-07-06T21:00:28;8.15;;;1.20;;
28483;SDS011;15704;48.834;8.736;2022-07-06T21:04:15;2.30;;;1.40;;
28483;SDS011;15704;48.834;8.736;2022-07-06T21:07:59;8.32;;;1.60;;
28483;SDS011;15704;48.834;8.736;2022-07-06T21:11:42;1.67;;;0.90;;
28483;SDS011;15704;48.834;8.736;2022-07-06T21:15:25;3.15;;;1.02;;
28483;SDS011;15704;48.834;8.736;2022-07-06T21:19:08;8.48;;;1.20;;
28483;SDS011;15704;48.834;8.736;2022-07-06T21:22:52;2.17;;;0.80;;
28483;SDS011;15704;48.834;8.736;2022-07-06T21:26:35;3.67;;;1.30;;
28483;SDS011;15704;48.834;8.736;2022-07-06T21:30:22;7.63;;;1.13;;
28483;SDS011;15704;48.834;8.736;2022-07-06T21:34:05;5.65;;;1.40;;
28483;SDS011;15704;48.834;8.736;2022-07-06T21:37:48;4.10;;;1.00;;
28483;SDS011;15704;48.834;8.736;2022-07-06T21:41:32;7.20;;;1.20;;
28483;SDS011;15704;48.834;8.736;2022-07-06T21:45:15;8.45;;;2.55;;
28483;SDS011;15704;48.834;8.736;2022-07-06T21:48:58;10.32;;;2.55;;
28483;SDS011;15704;48.834;8.736;2022-07-06T21:52:41;4.95;;;1.45;;
28483;SDS011;15704;48.834;8.736;2022-07-06T21:56:24;8.18;;;1.20;;
28483;SDS011;15704;48.834;8.736;2022-07-06T22:00:09;3.60;;;1.02;;
28483;SDS011;15704;48.834;8.736;2022-07-06T22:03:53;6.63;;;1.75;;
28483;SDS011;15704;48.834;8.736;2022-07-06T22:07:37;5.60;;;1.20;;
28483;SDS011;15704;48.834;8.736;2022-07-06T22:11:19;2.65;;;1.15;;
28483;SDS011;15704;48.834;8.736;2022-07-06T22:15:03;2.63;;;1.30;;
28483;SDS011;15704;48.834;8.736;2022-07-06T22:22:31;1.80;;;1.23;;
28483;SDS011;15704;48.834;8.736;2022-07-06T22:26:17;3.42;;;1.52;;
28483;SDS011;15704;48.834;8.736;2022-07-06T22:30:01;4.50;;;1.20;;
28483;SDS011;15704;48.834;8.736;2022-07-06T22:33:45;3.97;;;1.40;;
28483;SDS011;15704;48.834;8.736;2022-07-06T22:52:39;5.57;;;1.50;;
28483;SDS011;15704;48.834;8.736;2022-07-06T22:56:22;3.58;;;1.42;;
28483;SDS011;15704;48.834;8.736;2022-07-06T23:00:06;3.78;;;1.38;;
28483;SDS011;15704;48.834;8.736;2022-07-06T23:03:53;2.78;;;1.40;;
28483;SDS011;15704;48.834;8.736;2022-07-06T23:07:36;2.30;;;1.30;;
28483;SDS011;15704;48.834;8.736;2022-07-06T23:11:26;3.40;;;1.10;;
28483;SDS011;15704;48.834;8.736;2022-07-06T23:15:15;3.70;;;1.40;;
28483;SDS011;15704;48.834;8.736;2022-07-06T23:18:58;3.75;;;1.33;;
28483;SDS011;15704;48.834;8.736;2022-07-06T23:22:44;9.80;;;1.20;;
28483;SDS011;15704;48.834;8.736;2022-07-06T23:26:27;3.35;;;1.13;;
28483;SDS011;15704;48.834;8.736;2022-07-06T23:30:10;4.22;;;1.20;;
28483;SDS011;15704;48.834;8.736;2022-07-06T23:33:54;11.57;;;1.70;;
28483;SDS011;15704;48.834;8.736;2022-07-06T23:37:37;3.78;;;1.25;;
28483;SDS011;15704;48.834;8.736;2022-07-06T23:41:24;6.20;;;1.20;;
28483;SDS011;15704;48.834;8.736;2022-07-06T23:45:07;7.43;;;1.50;;
28483;SDS011;15704;48.834;8.736;2022-07-06T23:48:50;3.88;;;1.27;;
28483;SDS011;15704;48.834;8.736;2022-07-06T23:52:34;5.57;;;1.10;;